Airfield :
LOGIN :

Register | Disclaimer

   EN    FR    IT 

 










Legend :    VFR   Marginal VFR   IFR   Intensive IFR   Very Intensive IFR
Visi :
Ceiling :
>= 8 km
>= 3000ft
5 to 8 km
1000 to 3000 ft
1500m to 5 km
500 to 1000 ft
800 to 1500m
200 to 500 ft
< 800m
< 200 ft
Symbols :   Thunderstorms  Fog  Heavy snow  Heavy precipitations  Wind > 20 kt
SIGMETs :     Misc.  Thunderstorms  Icing  Turbulence  Mountain Waves  Volcanic Ashes







- Airport Elevation : 74 ft
- IATA code : LRH
- Download approach charts


LFBH - La Rochelle Ile de Ré

CURRENT METAR :
  • 191900Z AUTO 06011KT CAVOK 20/02 Q1020 BECMG 06015G25KT

EXPIRED METARs :
  • 191830Z AUTO 06014KT CAVOK 21/02 Q1020 BECMG 06015G25KT
  • 191800Z AUTO 06015KT CAVOK 22/02 Q1020 BECMG 06015G25KT
  • 191730Z AUTO 06018KT CAVOK 22/03 Q1020 BECMG 06015G25KT
  • 191700Z AUTO 06019KT CAVOK 23/03 Q1019 BECMG 05015G25KT
  • 191630Z AUTO 07018KT CAVOK 24/03 Q1019 BECMG 05015G25KT

TAF TAF LFBH
Valid from the 19 at 18:00 until the 20 at 18:00 UTC


191700Z 1918/2018 06015G25KT CAVOK
BECMG 2009/2011 12010KT
ATIS : +33 5 46 00 13 92
No reported NOTAMs for that airfield.



MET'MAP, your aeronautical weather chart ! - Copyright ORBIFLY December 2007 - Disclaimer

ORBIFLY MET'MAP TEAM :

Programming & Development : Alexandra Zaïnal
Concept & Development : Baudouin d'Aumeries
Co-Development & Prog : Marc-Olivier Méhu
Technical & hardware support : Manuel Goepfert

Contact : metmap@orbifly.com




SOURCES & CREDITS :

   NOAA